Time;durP1;ratioP1;P1;durP2;ratioP2;P2;SDS_P1;SDS_P2;PMS_P1;PMS_P2;Temp;Humidity;BMP_temperature;BMP_pressure;BME280_temperature;BME280_humidity;BME280_pressure;Samples;Min_cycle;Max_cycle;Signal;HPM_P1;HPM_P2
2022/09/22 00:01:07;;;;;;;23.50;15.05;;;;;;;7.56;100.00;102418.84;4953257;29;20042;-69
2022/09/22 00:03:36;;;;;;;20.42;14.57;;;;;;;7.43;99.63;102404.97;4953348;29;20071;-69
2022/09/22 00:06:03;;;;;;;23.90;14.55;;;;;;;7.45;99.80;102422.44;4953421;29;20035;-70
2022/09/22 00:08:31;;;;;;;21.02;14.23;;;;;;;7.38;99.38;102417.81;4953068;29;20031;-69
2022/09/22 00:11:15;;;;;;;21.70;13.88;;;;;;;7.34;100.00;102413.78;4953312;29;20035;-70
2022/09/22 00:13:43;;;;;;;23.88;14.93;;;;;;;7.33;100.00;102409.44;4953162;28;20035;-70
2022/09/22 00:16:10;;;;;;;21.63;13.13;;;;;;;7.28;99.79;102415.16;4952972;28;20123;-70
2022/09/22 00:18:36;;;;;;;20.38;13.85;;;;;;;7.23;99.74;102412.06;4953039;28;20046;-70
2022/09/22 00:21:08;;;;;;;24.23;14.35;;;;;;;7.12;100.00;102402.41;4952816;28;20118;-70
2022/09/22 00:23:33;;;;;;;26.05;14.18;;;;;;;7.19;100.00;102411.50;4952932;28;20042;-69
2022/09/22 00:26:07;;;;;;;23.50;15.68;;;;;;;7.20;100.00;102405.25;4953080;28;20046;-69
2022/09/22 00:28:33;;;;;;;22.35;14.23;;;;;;;7.23;100.00;102412.91;4953036;29;20111;-69
2022/09/22 00:30:58;;;;;;;23.80;14.75;;;;;;;7.24;100.00;102409.28;4953055;29;20486;-70
2022/09/22 00:33:23;;;;;;;22.90;13.95;;;;;;;7.27;100.00;102413.47;4952879;29;20102;-70
2022/09/22 00:35:57;;;;;;;24.10;13.93;;;;;;;7.27;100.00;102404.69;4952382;29;20390;-70
2022/09/22 00:38:22;;;;;;;21.42;13.10;;;;;;;7.22;99.98;102410.38;4952897;29;20126;-69
2022/09/22 00:40:48;;;;;;;23.08;14.85;;;;;;;7.19;100.00;102408.00;4952793;28;20027;-69
2022/09/22 00:43:20;;;;;;;25.30;14.00;;;;;;;7.16;100.00;102411.78;4951824;28;20475;-69
2022/09/22 00:45:53;;;;;;;20.85;13.93;;;;;;;7.14;100.00;102407.56;4952695;29;20450;-70
2022/09/22 00:48:21;;;;;;;22.83;13.73;;;;;;;7.13;100.00;102404.09;4952663;29;20031;-70
2022/09/22 00:50:51;;;;;;;22.20;13.23;;;;;;;7.16;100.00;102405.63;4952585;29;20451;-69
2022/09/22 00:53:18;;;;;;;26.98;14.10;;;;;;;7.15;100.00;102395.97;4952382;29;20034;-69
2022/09/22 00:56:19;;;;;;;19.95;12.90;;;;;;;7.18;100.00;102396.56;4952476;29;20019;-69
2022/09/22 00:58:53;;;;;;;22.02;13.45;;;;;;;7.17;100.00;102392.22;4939267;29;20042;-70
2022/09/22 01:01:19;;;;;;;23.35;13.20;;;;;;;7.20;100.00;102393.75;4934093;29;20028;-70
2022/09/22 01:03:46;;;;;;;22.63;12.27;;;;;;;7.13;100.00;102390.00;4933796;29;20078;-69
2022/09/22 01:06:17;;;;;;;20.75;12.30;;;;;;;7.10;100.00;102382.28;4933943;29;20027;-69
2022/09/22 01:08:43;;;;;;;23.10;14.13;;;;;;;7.09;100.00;102377.97;4952202;28;20050;-69
2022/09/22 01:11:11;;;;;;;21.15;13.73;;;;;;;6.97;100.00;102364.81;4952122;29;20042;-69
2022/09/22 01:14:01;;;;;;;21.45;13.05;;;;;;;6.99;100.00;102378.75;4952059;28;20538;-70
2022/09/22 01:16:35;;;;;;;21.88;14.13;;;;;;;6.97;100.00;102374.59;4952087;29;20024;-69
2022/09/22 01:19:58;;;;;;;21.33;13.68;;;;;;;6.96;100.00;102371.06;4951940;29;20051;-69
2022/09/22 01:22:57;;;;;;;22.60;13.50;;;;;;;6.95;100.00;102373.88;4951762;28;20852;-70
2022/09/22 01:25:32;;;;;;;21.23;12.63;;;;;;;6.94;100.00;102375.72;4951374;28;20083;-70
2022/09/22 01:28:35;;;;;;;21.92;12.57;;;;;;;6.94;100.00;102370.41;4951527;28;20031;-70
2022/09/22 01:31:24;;;;;;;23.67;12.27;;;;;;;6.91;100.00;102364.50;4921986;28;20039;-70
2022/09/22 01:34:16;;;;;;;19.13;11.60;;;;;;;6.91;100.00;102364.50;4951723;29;20035;-70
2022/09/22 01:36:47;;;;;;;19.85;12.30;;;;;;;6.86;100.00;102364.91;4951379;29;20031;-69
2022/09/22 01:39:22;;;;;;;21.63;13.95;;;;;;;6.85;100.00;102367.72;4951442;29;20491;-70
2022/09/22 01:41:59;;;;;;;20.33;11.93;;;;;;;6.80;100.00;102374.25;4951492;29;20483;-70
2022/09/22 01:44:30;;;;;;;22.08;12.90;;;;;;;6.72;100.00;102355.50;4951596;29;20072;-70
2022/09/22 01:47:00;;;;;;;20.03;12.23;;;;;;;6.65;100.00;102354.38;4951668;29;20042;-69
2022/09/22 01:49:29;;;;;;;19.50;11.20;;;;;;;6.73;100.00;102349.25;4951519;29;20023;-69
2022/09/22 01:51:59;;;;;;;20.10;12.10;;;;;;;6.78;100.00;102356.78;4951537;29;20075;-69
2022/09/22 01:54:39;;;;;;;22.63;12.68;;;;;;;6.78;100.00;102354.97;4950898;29;20223;-69
2022/09/22 01:57:40;;;;;;;21.60;12.40;;;;;;;6.73;100.00;102345.75;4932946;29;20040;-69
2022/09/22 02:00:08;;;;;;;20.60;12.25;;;;;;;6.67;100.00;102344.47;4928545;29;20043;-70
2022/09/22 02:02:39;;;;;;;21.73;11.95;;;;;;;6.54;100.00;102336.75;4951184;29;20055;-70
2022/09/22 02:05:10;;;;;;;20.30;11.98;;;;;;;6.62;100.00;102335.25;4951135;29;20039;-69
2022/09/22 02:07:39;;;;;;;20.47;11.80;;;;;;;6.57;100.00;102336.47;4950939;29;20035;-69
2022/09/22 02:10:09;;;;;;;20.48;11.35;;;;;;;6.58;100.00;102340.00;4951270;29;20483;-69
2022/09/22 02:12:35;;;;;;;20.30;12.15;;;;;;;6.53;100.00;102335.09;4951208;29;20027;-69
2022/09/22 02:15:02;;;;;;;21.45;12.07;;;;;;;6.52;100.00;102330.75;4951147;28;20038;-69
2022/09/22 02:17:27;;;;;;;23.75;11.98;;;;;;;6.54;100.00;102338.56;4951077;29;20505;-69
2022/09/22 02:19:53;;;;;;;24.35;13.45;;;;;;;6.49;100.00;102320.41;4950841;29;20059;-69
2022/09/22 02:22:19;;;;;;;20.73;13.93;;;;;;;6.57;100.00;102330.34;4918346;29;20031;-69
2022/09/22 02:24:46;;;;;;;20.40;10.93;;;;;;;6.59;100.00;102326.59;4950844;29;20027;-69
2022/09/22 02:27:19;;;;;;;20.15;11.55;;;;;;;6.56;100.00;102324.22;4950882;29;20034;-69
2022/09/22 02:29:49;;;;;;;18.90;11.73;;;;;;;6.54;100.00;102320.00;4950963;28;20030;-69
2022/09/22 02:32:16;;;;;;;21.10;12.55;;;;;;;6.55;100.00;102321.72;4950983;29;20030;-69
2022/09/22 02:34:46;;;;;;;20.13;12.27;;;;;;;6.52;100.00;102319.28;4950840;29;20078;-69
2022/09/22 02:37:20;;;;;;;19.52;11.00;;;;;;;6.44;100.00;102314.66;4950842;29;20041;-69
2022/09/22 02:40:06;;;;;;;19.85;11.80;;;;;;;6.48;100.00;102318.75;4950256;29;20038;-69
2022/09/22 02:42:40;;;;;;;19.90;11.45;;;;;;;6.48;100.00;102313.44;4950881;29;20081;-69
2022/09/22 02:45:14;;;;;;;26.05;13.18;;;;;;;6.50;100.00;102315.97;4950102;29;20031;-69
2022/09/22 02:47:44;;;;;;;23.27;12.27;;;;;;;6.50;100.00;102308.03;4950719;29;20024;-69
2022/09/22 02:50:12;;;;;;;18.27;10.88;;;;;;;6.52;100.00;102312.22;4950646;29;20027;-69
2022/09/22 02:52:39;;;;;;;21.42;12.77;;;;;;;6.51;100.00;102310.50;4950811;29;20612;-69
2022/09/22 02:55:06;;;;;;;21.15;12.98;;;;;;;6.51;100.00;102307.88;4950678;29;20060;-69
2022/09/22 02:57:32;;;;;;;24.30;13.82;;;;;;;6.49;100.00;102296.56;4950399;28;20426;-69
2022/09/22 02:59:57;;;;;;;21.50;12.13;;;;;;;6.55;100.00;102304.00;4950803;29;20122;-69
2022/09/22 03:02:22;;;;;;;20.90;13.05;;;;;;;6.48;100.00;102296.69;4950695;29;20039;-70
2022/09/22 03:04:50;;;;;;;20.27;13.60;;;;;;;6.46;100.00;102285.38;4950606;28;20031;-70
2022/09/22 03:07:15;;;;;;;19.85;12.77;;;;;;;6.50;100.00;102298.25;4954312;29;20046;-69
2022/09/22 03:09:40;;;;;;;22.77;11.65;;;;;;;6.49;100.00;102291.25;4936953;29;20076;-69
2022/09/22 03:12:06;;;;;;;17.27;10.95;;;;;;;6.46;100.00;102301.28;4937165;29;20039;-69
2022/09/22 03:14:31;;;;;;;18.50;10.27;;;;;;;6.33;100.00;102289.09;4954257;28;20066;-69
2022/09/22 03:16:56;;;;;;;19.70;11.18;;;;;;;6.30;100.00;102297.31;4954269;29;20066;-70
2022/09/22 03:19:22;;;;;;;20.83;11.05;;;;;;;6.26;100.00;102297.72;4954032;29;20145;-69
2022/09/22 03:21:47;;;;;;;18.95;10.88;;;;;;;6.09;100.00;102276.16;4954107;29;20108;-69
2022/09/22 03:24:12;;;;;;;18.17;10.77;;;;;;;6.20;100.00;102298.25;4954036;28;20460;-70
2022/09/22 03:26:38;;;;;;;16.30;9.85;;;;;;;6.19;100.00;102296.59;4953786;29;20486;-70
2022/09/22 03:29:03;;;;;;;17.20;10.80;;;;;;;6.17;100.00;102295.88;4951371;29;20383;-70
2022/09/22 03:31:28;;;;;;;16.85;9.38;;;;;;;6.15;100.00;102294.19;4935743;29;20167;-70
2022/09/22 03:33:54;;;;;;;15.32;9.43;;;;;;;6.11;100.00;102286.66;4935684;29;20063;-70
2022/09/22 03:36:19;;;;;;;14.38;8.95;;;;;;;6.07;100.00;102280.75;4953650;29;20038;-70
2022/09/22 03:38:45;;;;;;;15.43;9.30;;;;;;;6.09;100.00;102283.28;4944701;29;20569;-70
2022/09/22 03:41:10;;;;;;;16.20;9.30;;;;;;;6.08;100.00;102286.91;4935175;29;20067;-70
2022/09/22 03:43:35;;;;;;;15.35;8.88;;;;;;;6.05;100.00;102290.66;4935376;29;20036;-70
2022/09/22 03:46:01;;;;;;;15.52;9.10;;;;;;;6.02;100.00;102284.78;4935157;29;20031;-70
2022/09/22 03:48:28;;;;;;;14.88;9.02;;;;;;;6.02;100.00;102287.41;4935329;29;20032;-69
2022/09/22 03:50:54;;;;;;;16.17;8.57;;;;;;;5.95;100.00;102279.19;4935373;29;20393;-69
2022/09/22 03:53:20;;;;;;;14.50;8.75;;;;;;;5.97;100.00;102289.63;4935283;29;20035;-69
2022/09/22 03:55:45;;;;;;;15.63;8.93;;;;;;;5.97;100.00;102286.97;4935241;29;20495;-69
2022/09/22 03:58:11;;;;;;;15.27;7.88;;;;;;;5.97;100.00;102286.97;4935325;29;20118;-69
2022/09/22 04:00:37;;;;;;;19.73;9.50;;;;;;;5.97;100.00;102287.81;4918209;29;20035;-69
2022/09/22 04:03:02;;;;;;;15.38;9.20;;;;;;;5.93;100.00;102276.66;4953678;29;20066;-69
2022/09/22 04:05:28;;;;;;;16.85;9.38;;;;;;;5.96;100.00;102283.50;4953512;29;20050;-69
2022/09/22 04:07:53;;;;;;;16.52;9.98;;;;;;;5.95;100.00;102278.31;4935986;29;20624;-69
2022/09/22 04:10:19;;;;;;;16.35;9.75;;;;;;;5.90;100.00;102268.94;4953252;29;20641;-69
2022/09/22 04:12:45;;;;;;;15.00;8.20;;;;;;;5.92;100.00;102282.91;4953325;29;20174;-70
2022/09/22 04:15:10;;;;;;;15.40;8.68;;;;;;;5.93;100.00;102270.47;4953087;29;20126;-70
2022/09/22 04:17:38;;;;;;;15.25;9.15;;;;;;;5.92;100.00;102274.94;4934621;29;20046;-70
2022/09/22 04:20:06;;;;;;;16.85;9.43;;;;;;;5.90;100.00;102265.47;4952909;28;20519;-70
2022/09/22 04:22:32;;;;;;;14.85;8.98;;;;;;;5.92;100.00;102267.00;4953305;29;20446;-70
2022/09/22 04:24:57;;;;;;;14.55;8.90;;;;;;;5.88;100.00;102264.75;4952934;28;20031;-70
2022/09/22 04:27:23;;;;;;;17.25;9.55;;;;;;;5.89;100.00;102267.28;4952964;29;20107;-70
2022/09/22 04:29:49;;;;;;;17.67;9.93;;;;;;;5.90;100.00;102270.75;4952825;29;20027;-69
2022/09/22 04:32:15;;;;;;;16.15;10.00;;;;;;;5.89;100.00;102272.56;4952891;29;20243;-69
2022/09/22 04:34:41;;;;;;;23.92;10.98;;;;;;;5.86;100.00;102264.03;4952935;29;20035;-69
2022/09/22 04:37:07;;;;;;;18.08;10.25;;;;;;;5.89;100.00;102266.41;4952914;28;20039;-70
2022/09/22 04:39:32;;;;;;;15.43;10.30;;;;;;;5.90;100.00;102268.09;4933990;29;20086;-70
2022/09/22 04:41:57;;;;;;;16.45;9.45;;;;;;;5.91;100.00;102257.38;4917327;29;20062;-70
2022/09/22 04:44:23;;;;;;;16.77;10.85;;;;;;;5.90;100.00;102262.81;4934095;29;20024;-69
2022/09/22 04:46:49;;;;;;;20.23;10.60;;;;;;;5.89;100.00;102263.75;4934228;29;20087;-69
2022/09/22 04:49:15;;;;;;;17.00;10.07;;;;;;;5.87;100.00;102255.13;4934298;29;20039;-70
2022/09/22 04:51:40;;;;;;;20.00;11.30;;;;;;;5.85;100.00;102251.78;4952666;29;20031;-68
2022/09/22 04:54:06;;;;;;;17.77;11.60;;;;;;;5.83;100.00;102259.00;4952310;29;20031;-68
2022/09/22 04:56:31;;;;;;;16.92;10.45;;;;;;;5.83;100.00;102261.66;4952525;29;20035;-69
2022/09/22 04:58:56;;;;;;;18.50;10.95;;;;;;;5.87;100.00;102265.72;4952403;28;20037;-69
2022/09/22 05:01:22;;;;;;;16.23;10.02;;;;;;;5.84;100.00;102260.66;4952435;29;20035;-69
2022/09/22 05:03:47;;;;;;;17.70;10.30;;;;;;;5.79;100.00;102252.28;4952214;29;20106;-69
2022/09/22 05:06:13;;;;;;;16.73;10.27;;;;;;;5.80;100.00;102269.84;4952255;28;20415;-69
2022/09/22 05:08:38;;;;;;;18.92;10.38;;;;;;;5.78;100.00;102269.13;4952046;28;20035;-65
2022/09/22 05:11:07;;;;;;;17.67;10.70;;;;;;;5.77;100.00;102267.47;4952215;29;20039;-65
2022/09/22 05:13:32;;;;;;;16.27;10.10;;;;;;;5.75;100.00;102258.81;4952234;28;20530;-65
2022/09/22 05:15:58;;;;;;;18.20;10.43;;;;;;;5.72;100.00;102268.69;4952094;29;20063;-65
2022/09/22 05:18:23;;;;;;;18.75;11.00;;;;;;;5.71;100.00;102277.59;4950729;29;20027;-65
2022/09/22 05:20:49;;;;;;;18.83;10.65;;;;;;;5.71;100.00;102274.09;4933576;29;20060;-65
2022/09/22 05:23:14;;;;;;;16.15;9.90;;;;;;;5.69;100.00;102276.91;4951496;28;20543;-65
2022/09/22 05:25:40;;;;;;;17.90;10.00;;;;;;;5.65;100.00;102270.16;4951651;29;20039;-64
2022/09/22 05:28:05;;;;;;;17.10;9.65;;;;;;;5.54;100.00;102253.53;4951546;28;20074;-65
2022/09/22 05:30:31;;;;;;;15.57;9.98;;;;;;;5.62;100.00;102273.06;4951332;29;20423;-65
2022/09/22 05:32:56;;;;;;;17.90;9.68;;;;;;;5.59;100.00;102267.22;4951741;29;20023;-65
2022/09/22 05:35:23;;;;;;;19.23;10.20;;;;;;;5.61;100.00;102278.50;4917645;29;20151;-66
2022/09/22 05:37:50;;;;;;;18.77;9.80;;;;;;;5.65;100.00;102285.22;4943028;29;20121;-66
2022/09/22 05:40:17;;;;;;;16.55;10.43;;;;;;;5.67;100.00;102281.47;4951120;29;20434;-67
2022/09/22 05:42:44;;;;;;;16.00;9.43;;;;;;;5.71;100.00;102282.91;4951686;29;20058;-65
2022/09/22 05:45:10;;;;;;;16.77;10.73;;;;;;;5.74;100.00;102284.44;4951184;28;20035;-65
2022/09/22 05:47:36;;;;;;;18.95;11.18;;;;;;;5.73;100.00;102282.75;4934223;29;20363;-65
2022/09/22 05:50:01;;;;;;;15.85;9.77;;;;;;;5.76;100.00;102282.50;4951255;28;20062;-65
2022/09/22 05:52:27;;;;;;;15.88;9.85;;;;;;;5.79;100.00;102284.91;4951334;29;20033;-65
2022/09/22 05:54:52;;;;;;;17.33;10.07;;;;;;;5.81;100.00;102285.59;4951471;29;20039;-65
2022/09/22 05:57:20;;;;;;;18.42;11.73;;;;;;;5.82;100.00;102287.28;4951479;29;20066;-65
2022/09/22 05:59:46;;;;;;;20.73;13.00;;;;;;;5.86;100.00;102293.16;4951501;29;20075;-65
2022/09/22 06:02:11;;;;;;;20.70;12.63;;;;;;;5.89;100.00;102285.81;4951276;28;20142;-65
2022/09/22 06:04:36;;;;;;;20.15;11.10;;;;;;;5.93;100.00;102294.31;4951211;29;20075;-66
2022/09/22 06:07:02;;;;;;;22.95;12.55;;;;;;;5.93;100.00;102289.03;4951072;29;20030;-66
2022/09/22 06:09:27;;;;;;;20.55;12.18;;;;;;;5.99;100.00;102288.53;4950930;29;20125;-65
2022/09/22 06:11:52;;;;;;;20.75;12.50;;;;;;;5.99;100.00;102285.88;4951002;29;20074;-65
2022/09/22 06:14:18;;;;;;;17.98;11.98;;;;;;;6.08;100.00;102293.03;4950979;28;20039;-65
2022/09/22 06:16:43;;;;;;;21.13;12.95;;;;;;;6.12;100.00;102290.97;4951225;29;20059;-65
2022/09/22 06:19:08;;;;;;;22.95;13.93;;;;;;;6.18;100.00;102298.38;4950884;28;20071;-65
2022/09/22 06:21:34;;;;;;;20.02;11.98;;;;;;;6.24;100.00;102295.22;4950951;29;20104;-65
2022/09/22 06:24:00;;;;;;;21.42;12.07;;;;;;;6.28;100.00;102288.66;4950822;29;20091;-65
2022/09/22 06:26:25;;;;;;;23.60;13.15;;;;;;;6.37;100.00;102292.34;4950625;29;20426;-68
2022/09/22 06:28:50;;;;;;;20.33;12.38;;;;;;;6.43;100.00;102286.50;4950926;29;20063;-69
2022/09/22 06:31:16;;;;;;;20.55;13.60;;;;;;;6.52;100.00;102282.19;4950619;29;20031;-69
2022/09/22 06:33:47;;;;;;;21.73;14.38;;;;;;;6.55;100.00;102282.78;4950801;29;20027;-69
2022/09/22 06:36:19;;;;;;;23.17;13.32;;;;;;;6.65;100.00;102280.13;4934349;29;20034;-69
2022/09/22 06:38:45;;;;;;;23.63;14.43;;;;;;;6.72;100.00;102278.63;4950828;29;20031;-69
2022/09/22 06:41:10;;;;;;;19.98;12.93;;;;;;;6.75;100.00;102274.88;4950141;29;20089;-69
2022/09/22 06:43:36;;;;;;;22.48;15.00;;;;;;;6.85;100.00;102281.03;4950735;28;20510;-70
2022/09/22 06:46:02;;;;;;;23.33;14.25;;;;;;;6.83;100.00;102267.06;4950609;28;20053;-69
2022/09/22 06:48:28;;;;;;;25.52;16.35;;;;;;;6.98;100.00;102278.97;4950452;29;20491;-69
2022/09/22 06:50:53;;;;;;;26.10;16.00;;;;;;;7.06;100.00;102274.78;4950371;29;20035;-69
2022/09/22 06:53:19;;;;;;;24.15;16.90;;;;;;;7.12;100.00;102277.69;4950489;28;20793;-69
2022/09/22 06:55:46;;;;;;;28.23;18.23;;;;;;;7.19;100.00;102280.66;4950695;29;20046;-69
2022/09/22 06:58:13;;;;;;;23.20;15.52;;;;;;;7.27;100.00;102279.97;4932248;29;20028;-69
2022/09/22 07:00:40;;;;;;;21.83;14.38;;;;;;;7.36;100.00;102281.75;4936354;29;20090;-71
2022/09/22 07:03:21;;;;;;;24.00;15.27;;;;;;;7.43;100.00;102275.75;4950361;28;20028;-70
2022/09/22 07:05:59;;;;;;;25.50;16.70;;;;;;;7.53;100.00;102274.91;4950877;29;20035;-71
2022/09/22 07:08:26;;;;;;;26.40;16.00;;;;;;;7.58;100.00;102268.19;4950408;29;20038;-70
2022/09/22 07:11:00;;;;;;;26.17;17.48;;;;;;;7.66;100.00;102272.81;4933013;29;20472;-70
2022/09/22 07:13:28;;;;;;;27.52;17.95;;;;;;;7.75;100.00;102266.63;4950270;29;20900;-71
2022/09/22 07:15:59;;;;;;;27.85;17.00;;;;;;;7.82;100.00;102273.03;4950409;29;20035;-70
2022/09/22 07:18:24;;;;;;;24.88;16.67;;;;;;;7.89;100.00;102268.84;4950460;29;20414;-70
2022/09/22 07:20:49;;;;;;;26.23;18.80;;;;;;;7.99;100.00;102267.97;4950277;29;20055;-69
2022/09/22 07:23:20;;;;;;;28.00;20.08;;;;;;;8.03;100.00;102264.88;4933090;29;20044;-68
2022/09/22 07:25:59;;;;;;;24.58;17.92;;;;;;;8.17;100.00;102274.19;4933353;29;20039;-72
2022/09/22 07:28:28;;;;;;;25.13;18.83;;;;;;;8.22;100.00;102265.78;4949958;28;20039;-69
2022/09/22 07:30:57;;;;;;;25.85;17.98;;;;;;;8.35;100.00;102272.44;4938075;29;20028;-71
2022/09/22 07:33:23;;;;;;;28.00;17.70;;;;;;;8.45;100.00;102272.44;4935337;28;20028;-71
2022/09/22 07:36:00;;;;;;;23.23;16.92;;;;;;;8.56;100.00;102263.41;4935588;28;20400;-70
2022/09/22 07:38:29;;;;;;;24.42;16.52;;;;;;;8.67;100.00;102271.22;4936338;28;20066;-68
2022/09/22 07:40:55;;;;;;;27.80;19.77;;;;;;;8.77;100.00;102269.28;4936238;28;20042;-68
2022/09/22 07:43:20;;;;;;;29.60;18.77;;;;;;;8.87;100.00;102266.59;4935304;28;20035;-69
2022/09/22 07:45:54;;;;;;;35.42;21.05;;;;;;;8.95;100.00;102264.00;4936111;28;20093;-72
2022/09/22 07:48:36;;;;;;;27.90;20.52;;;;;;;9.09;100.00;102273.31;4933788;28;20367;-68
2022/09/22 07:51:07;;;;;;;28.63;19.05;;;;;;;9.20;100.00;102273.06;4932258;29;20028;-67
2022/09/22 07:53:38;;;;;;;25.48;17.52;;;;;;;9.34;100.00;102271.69;4935238;29;20027;-68
2022/09/22 07:56:07;;;;;;;26.63;16.55;;;;;;;9.50;100.00;102270.97;4935162;29;20035;-68
2022/09/22 07:58:32;;;;;;;25.58;17.10;;;;;;;9.62;100.00;102272.41;4953148;29;20035;-67
2022/09/22 08:01:03;;;;;;;22.38;15.80;;;;;;;9.71;100.00;102265.31;4953390;28;20058;-68
2022/09/22 08:03:29;;;;;;;23.47;16.50;;;;;;;9.78;100.00;102254.88;4953309;29;20085;-67
2022/09/22 08:06:01;;;;;;;24.45;16.85;;;;;;;10.01;100.00;102265.84;4953119;29;20043;-67
2022/09/22 08:08:27;;;;;;;23.08;15.85;;;;;;;10.14;100.00;102271.59;4953220;29;20394;-67
2022/09/22 08:10:54;;;;;;;29.80;15.55;;;;;;;10.25;99.70;102257.97;4953114;29;20035;-67
2022/09/22 08:13:20;;;;;;;21.67;14.07;;;;;;;10.41;98.13;102261.72;4953353;28;20027;-67
2022/09/22 08:15:46;;;;;;;20.23;14.38;;;;;;;10.57;96.72;102264.44;4953217;29;20038;-68
2022/09/22 08:18:13;;;;;;;22.20;13.35;;;;;;;10.72;97.21;102259.34;4953105;28;20058;-67
2022/09/22 08:20:41;;;;;;;19.85;13.43;;;;;;;10.86;97.07;102263.19;4952053;29;20051;-67
2022/09/22 08:23:07;;;;;;;24.17;14.77;;;;;;;10.97;96.51;102258.38;4951700;29;20043;-67
2022/09/22 08:25:33;;;;;;;19.67;12.25;;;;;;;11.09;93.88;102256.22;4951939;29;20031;-67
2022/09/22 08:28:00;;;;;;;17.98;11.52;;;;;;;11.20;91.37;102257.72;4951972;28;20050;-67
2022/09/22 08:30:25;;;;;;;20.40;11.88;;;;;;;11.31;93.17;102251.22;4951841;29;20086;-67
2022/09/22 08:32:50;;;;;;;22.00;13.93;;;;;;;11.41;92.78;102250.06;4951785;29;20419;-68
2022/09/22 08:35:17;;;;;;;25.67;13.65;;;;;;;11.51;92.28;102246.38;4951936;29;20434;-67
2022/09/22 08:37:43;;;;;;;20.95;14.52;;;;;;;11.64;91.49;102246.69;4951581;28;20055;-67
2022/09/22 08:40:18;;;;;;;20.55;12.70;;;;;;;11.73;90.41;102250.19;4951614;29;20038;-67
2022/09/22 08:42:44;;;;;;;18.73;11.10;;;;;;;11.79;89.27;102247.69;4951780;29;20035;-67
2022/09/22 08:45:23;;;;;;;19.38;12.40;;;;;;;11.88;89.26;102243.19;4951609;29;20068;-67
2022/09/22 08:53:50;;;;;;;23.33;15.52;;;;;;;12.21;90.12;102249.25;4952123;29;20041;-67
2022/09/22 08:56:31;;;;;;;19.17;12.63;;;;;;;12.30;89.78;102252.72;4951465;28;20027;-67
2022/09/22 08:59:03;;;;;;;21.33;14.15;;;;;;;12.40;89.08;102248.00;4951551;28;20027;-67
2022/09/22 09:01:38;;;;;;;20.77;13.00;;;;;;;12.51;87.28;102252.13;4951453;28;20034;-68
2022/09/22 09:04:17;;;;;;;19.15;13.00;;;;;;;12.63;86.15;102258.78;4950470;28;20043;-67
2022/09/22 09:06:54;;;;;;;18.02;11.55;;;;;;;12.76;85.27;102249.31;4951111;29;20031;-67
2022/09/22 09:10:02;;;;;;;19.20;12.88;;;;;;;12.87;86.76;102251.59;4951428;29;20039;-67
2022/09/22 09:12:57;;;;;;;18.98;12.18;;;;;;;12.99;85.58;102262.72;4951331;29;20080;-68
2022/09/22 09:15:42;;;;;;;24.10;11.73;;;;;;;13.12;83.23;102263.78;4951186;29;20039;-68
2022/09/22 09:18:17;;;;;;;19.70;11.23;;;;;;;13.27;83.73;102265.75;4951260;28;20086;-68
2022/09/22 09:20:45;;;;;;;18.85;11.02;;;;;;;13.40;82.51;102263.28;4913786;29;1106469;-68
2022/09/22 09:23:30;;;;;;;16.63;11.77;;;;;;;13.53;83.78;102257.31;4951749;29;20035;-68
2022/09/22 09:25:57;;;;;;;20.52;12.20;;;;;;;13.65;83.25;102261.22;4933275;29;20030;-68
2022/09/22 09:28:41;;;;;;;16.70;10.85;;;;;;;13.75;81.29;102251.09;4933559;29;20148;-68
2022/09/22 09:31:36;;;;;;;23.23;11.95;;;;;;;13.92;82.46;102250.91;4934485;29;20070;-68
2022/09/22 09:34:04;;;;;;;20.38;12.00;;;;;;;13.99;81.72;102252.66;4944667;28;20039;-68
2022/09/22 09:36:36;;;;;;;15.85;10.65;;;;;;;14.14;81.22;102246.44;4951702;28;20038;-68
2022/09/22 09:39:30;;;;;;;18.10;11.23;;;;;;;14.29;82.45;102251.81;4951571;29;20059;-68
2022/09/22 09:41:56;;;;;;;14.07;9.50;;;;;;;14.35;76.51;102251.06;4948999;29;20117;-68
2022/09/22 09:44:32;;;;;;;17.67;11.35;;;;;;;14.47;77.13;102249.56;4951547;28;20043;-68
2022/09/22 09:47:10;;;;;;;15.32;9.88;;;;;;;14.63;77.68;102248.53;4951618;29;20030;-68
2022/09/22 09:49:36;;;;;;;18.42;9.10;;;;;;;14.77;75.99;102247.66;4934538;29;20414;-68
2022/09/22 09:52:08;;;;;;;20.30;10.40;;;;;;;14.83;75.56;102252.28;4951002;29;20050;-68
2022/09/22 09:54:36;;;;;;;15.73;10.27;;;;;;;14.95;75.87;102252.59;4951210;29;20501;-68
2022/09/22 09:57:07;;;;;;;15.65;8.88;;;;;;;15.07;75.24;102247.56;4951382;29;20032;-67
2022/09/22 10:02:35;;;;;;;14.65;10.15;;;;;;;15.26;76.53;102238.84;4951593;29;20053;-67
2022/09/22 10:05:06;;;;;;;14.07;9.13;;;;;;;15.37;74.22;102239.34;4932720;29;20044;-67
2022/09/22 10:07:44;;;;;;;16.60;10.20;;;;;;;15.46;75.28;102236.31;4932950;29;20035;-67
2022/09/22 10:10:28;;;;;;;19.25;12.05;;;;;;;15.59;75.63;102234.75;4932901;29;20035;-67
2022/09/22 10:13:14;;;;;;;15.45;9.25;;;;;;;15.62;73.01;102232.50;4932379;29;20068;-67
2022/09/22 10:15:41;;;;;;;17.73;10.80;;;;;;;15.70;70.35;102224.31;4931566;29;20039;-68
2022/09/22 10:18:25;;;;;;;15.02;9.77;;;;;;;15.81;72.41;102230.19;4932642;29;20431;-70
2022/09/22 10:21:09;;;;;;;17.17;9.73;;;;;;;15.87;71.86;102224.81;4932624;29;20111;-70
2022/09/22 10:23:34;;;;;;;17.88;9.00;;;;;;;15.94;70.67;102227.56;4932624;29;20051;-70
2022/09/22 10:26:35;;;;;;;10.65;6.93;;;;;;;16.07;70.30;102224.13;4932584;29;20023;-70
2022/09/22 10:29:19;;;;;;;13.65;7.28;;;;;;;16.13;66.90;102218.75;4873027;29;20040;-71
2022/09/22 10:32:06;;;;;;;10.43;5.95;;;;;;;16.22;67.94;102219.44;4944740;29;20073;-70
2022/09/22 10:34:38;;;;;;;8.68;5.30;;;;;;;16.24;63.76;102211.97;4950542;28;20035;-70
2022/09/22 10:37:12;;;;;;;8.73;4.93;;;;;;;16.33;63.18;102210.75;4950706;28;20066;-71
2022/09/22 10:39:50;;;;;;;10.32;4.97;;;;;;;16.40;61.33;102208.94;4950722;29;20110;-71
2022/09/22 10:42:35;;;;;;;9.45;5.20;;;;;;;16.44;63.77;102203.97;4950787;29;20054;-71
2022/09/22 10:45:12;;;;;;;6.68;4.13;;;;;;;16.42;61.29;102193.38;4950289;29;20090;-70
2022/09/22 10:47:59;;;;;;;9.95;5.63;;;;;;;16.53;61.35;102200.06;4950797;29;20491;-71
2022/09/22 10:50:40;;;;;;;10.23;5.57;;;;;;;16.54;60.35;102203.59;4950793;29;20059;-69
2022/09/22 10:53:05;;;;;;;10.03;6.10;;;;;;;16.61;61.25;102193.63;4942581;28;20027;-69
2022/09/22 10:55:39;;;;;;;4.60;3.58;;;;;;;16.70;59.27;102188.91;4935200;28;20414;-69
2022/09/22 10:58:07;;;;;;;6.50;4.22;;;;;;;16.72;58.92;102193.06;4936678;28;20027;-69
2022/09/22 11:00:35;;;;;;;11.02;4.90;;;;;;;16.79;63.35;102188.56;4935929;28;20043;-68
2022/09/22 11:03:20;;;;;;;8.02;5.13;;;;;;;16.91;62.23;102193.31;4936007;28;20031;-68
2022/09/22 11:15:31;;;;;;;7.47;5.05;;;;;;;17.06;59.12;102186.69;4936493;28;20042;-67
2022/09/22 11:18:14;;;;;;;11.32;6.18;;;;;;;17.07;59.99;102185.66;4868957;29;20132;-70
2022/09/22 11:20:42;;;;;;;7.50;4.60;;;;;;;17.13;57.96;102185.84;4929792;28;20448;-70
2022/09/22 11:23:39;;;;;;;9.20;4.75;;;;;;;17.20;59.55;102179.44;4935503;28;20031;-70
2022/09/22 11:26:13;;;;;;;9.75;5.22;;;;;;;17.27;58.16;102176.75;4936330;28;20352;-71
2022/09/22 11:29:05;;;;;;;7.15;4.95;;;;;;;17.38;60.67;102178.81;4935636;29;20051;-69
2022/09/22 11:31:36;;;;;;;;;;;;;;;17.49;63.53;102177.31;4936089;29;20051;-69
2022/09/22 11:34:41;;;;;;;9.32;3.72;;;;;;;17.31;59.58;102177.97;4954049;28;19910;-69
2022/09/22 11:37:25;;;;;;;5.63;2.53;;;;;;;16.96;58.31;102171.97;4953530;29;20126;-68
2022/09/22 11:40:28;;;;;;;4.50;3.10;;;;;;;16.85;59.33;102163.47;4936571;29;20039;-68
2022/09/22 11:42:59;;;;;;;7.05;3.58;;;;;;;16.74;58.67;102161.38;4954007;29;20046;-68
2022/09/22 11:45:45;;;;;;;5.63;3.08;;;;;;;16.88;57.54;102162.22;4935578;29;20028;-68
2022/09/22 11:48:54;;;;;;;5.88;3.30;;;;;;;16.97;58.86;102155.59;4918182;29;20365;-68